sensor_id;sensor_type;location;lat;lon;timestamp;P1;durP1;ratioP1;P2;durP2;ratioP2
19191;SDS011;9728;48.194;16.346;2022-10-16T00:01:22;18.05;;;11.10;;
19191;SDS011;9728;48.194;16.346;2022-10-16T00:06:28;16.80;;;11.40;;
19191;SDS011;9728;48.194;16.346;2022-10-16T00:11:32;17.77;;;11.48;;
19191;SDS011;9728;48.194;16.346;2022-10-16T00:16:38;16.65;;;9.70;;
19191;SDS011;9728;48.194;16.346;2022-10-16T00:21:43;17.98;;;11.02;;
19191;SDS011;9728;48.194;16.346;2022-10-16T00:26:46;19.48;;;11.32;;
19191;SDS011;9728;48.194;16.346;2022-10-16T00:31:52;20.13;;;11.20;;
19191;SDS011;9728;48.194;16.346;2022-10-16T00:36:57;19.80;;;11.13;;
19191;SDS011;9728;48.194;16.346;2022-10-16T00:42:01;18.73;;;10.80;;
19191;SDS011;9728;48.194;16.346;2022-10-16T00:47:04;19.52;;;11.40;;
19191;SDS011;9728;48.194;16.346;2022-10-16T00:52:12;20.27;;;11.10;;
19191;SDS011;9728;48.194;16.346;2022-10-16T00:57:17;16.25;;;10.38;;
19191;SDS011;9728;48.194;16.346;2022-10-16T01:02:21;15.52;;;9.73;;
19191;SDS011;9728;48.194;16.346;2022-10-16T01:07:30;18.50;;;11.13;;
19191;SDS011;9728;48.194;16.346;2022-10-16T01:12:40;15.63;;;9.85;;
19191;SDS011;9728;48.194;16.346;2022-10-16T01:17:51;14.32;;;9.63;;
19191;SDS011;9728;48.194;16.346;2022-10-16T01:23:07;16.02;;;10.15;;
19191;SDS011;9728;48.194;16.346;2022-10-16T01:28:25;13.60;;;8.90;;
19191;SDS011;9728;48.194;16.346;2022-10-16T01:33:35;17.30;;;9.68;;
19191;SDS011;9728;48.194;16.346;2022-10-16T01:38:42;16.10;;;9.48;;
19191;SDS011;9728;48.194;16.346;2022-10-16T01:43:53;13.32;;;8.98;;
19191;SDS011;9728;48.194;16.346;2022-10-16T01:49:04;16.48;;;9.27;;
19191;SDS011;9728;48.194;16.346;2022-10-16T01:54:09;15.30;;;9.65;;
19191;SDS011;9728;48.194;16.346;2022-10-16T01:59:16;16.33;;;10.10;;
19191;SDS011;9728;48.194;16.346;2022-10-16T02:04:24;14.65;;;9.27;;
19191;SDS011;9728;48.194;16.346;2022-10-16T02:09:30;13.10;;;8.77;;
19191;SDS011;9728;48.194;16.346;2022-10-16T02:14:38;15.35;;;9.25;;
19191;SDS011;9728;48.194;16.346;2022-10-16T02:19:42;14.95;;;9.45;;
19191;SDS011;9728;48.194;16.346;2022-10-16T02:24:49;14.32;;;8.82;;
19191;SDS011;9728;48.194;16.346;2022-10-16T02:29:58;11.85;;;7.65;;
19191;SDS011;9728;48.194;16.346;2022-10-16T02:35:09;11.98;;;7.90;;
19191;SDS011;9728;48.194;16.346;2022-10-16T02:40:13;12.95;;;8.55;;
19191;SDS011;9728;48.194;16.346;2022-10-16T02:45:23;13.10;;;8.00;;
19191;SDS011;9728;48.194;16.346;2022-10-16T02:50:27;11.82;;;8.00;;
19191;SDS011;9728;48.194;16.346;2022-10-16T02:55:30;13.77;;;8.68;;
19191;SDS011;9728;48.194;16.346;2022-10-16T03:00:35;13.35;;;8.63;;
19191;SDS011;9728;48.194;16.346;2022-10-16T03:05:39;11.48;;;7.88;;
19191;SDS011;9728;48.194;16.346;2022-10-16T03:10:42;11.85;;;8.55;;
19191;SDS011;9728;48.194;16.346;2022-10-16T03:15:47;10.73;;;7.55;;
19191;SDS011;9728;48.194;16.346;2022-10-16T03:20:50;9.68;;;7.65;;
19191;SDS011;9728;48.194;16.346;2022-10-16T03:25:53;14.07;;;8.60;;
19191;SDS011;9728;48.194;16.346;2022-10-16T03:30:58;10.85;;;7.38;;
19191;SDS011;9728;48.194;16.346;2022-10-16T03:36:01;9.63;;;7.50;;
19191;SDS011;9728;48.194;16.346;2022-10-16T03:41:05;13.50;;;8.20;;
19191;SDS011;9728;48.194;16.346;2022-10-16T03:46:10;12.95;;;8.50;;
19191;SDS011;9728;48.194;16.346;2022-10-16T03:51:13;10.80;;;7.63;;
19191;SDS011;9728;48.194;16.346;2022-10-16T03:56:17;11.80;;;7.90;;
19191;SDS011;9728;48.194;16.346;2022-10-16T04:01:21;11.15;;;7.38;;
19191;SDS011;9728;48.194;16.346;2022-10-16T04:06:25;10.27;;;7.05;;
19191;SDS011;9728;48.194;16.346;2022-10-16T04:11:28;11.77;;;7.80;;
19191;SDS011;9728;48.194;16.346;2022-10-16T04:16:33;13.00;;;7.85;;
19191;SDS011;9728;48.194;16.346;2022-10-16T04:21:36;8.13;;;6.40;;
19191;SDS011;9728;48.194;16.346;2022-10-16T04:26:40;10.15;;;6.63;;
19191;SDS011;9728;48.194;16.346;2022-10-16T04:31:45;8.20;;;5.93;;
19191;SDS011;9728;48.194;16.346;2022-10-16T04:36:49;9.77;;;6.50;;
19191;SDS011;9728;48.194;16.346;2022-10-16T04:41:53;7.72;;;5.82;;
19191;SDS011;9728;48.194;16.346;2022-10-16T04:46:57;12.50;;;7.65;;
19191;SDS011;9728;48.194;16.346;2022-10-16T04:52:01;10.90;;;6.82;;
19191;SDS011;9728;48.194;16.346;2022-10-16T04:57:04;9.95;;;6.57;;
19191;SDS011;9728;48.194;16.346;2022-10-16T05:02:09;9.63;;;6.25;;
19191;SDS011;9728;48.194;16.346;2022-10-16T05:07:12;12.68;;;7.32;;
19191;SDS011;9728;48.194;16.346;2022-10-16T05:12:16;9.43;;;5.90;;
19191;SDS011;9728;48.194;16.346;2022-10-16T05:17:21;11.48;;;6.43;;
19191;SDS011;9728;48.194;16.346;2022-10-16T05:22:25;12.32;;;6.70;;
19191;SDS011;9728;48.194;16.346;2022-10-16T05:27:28;11.23;;;6.57;;
19191;SDS011;9728;48.194;16.346;2022-10-16T05:32:33;10.63;;;6.80;;
19191;SDS011;9728;48.194;16.346;2022-10-16T05:37:36;9.25;;;5.63;;
19191;SDS011;9728;48.194;16.346;2022-10-16T05:42:40;8.68;;;5.63;;
19191;SDS011;9728;48.194;16.346;2022-10-16T05:47:45;8.95;;;6.18;;
19191;SDS011;9728;48.194;16.346;2022-10-16T05:52:48;10.90;;;6.43;;
19191;SDS011;9728;48.194;16.346;2022-10-16T05:57:53;8.88;;;5.70;;
19191;SDS011;9728;48.194;16.346;2022-10-16T06:02:58;9.60;;;5.50;;
19191;SDS011;9728;48.194;16.346;2022-10-16T06:08:02;10.57;;;6.38;;
19191;SDS011;9728;48.194;16.346;2022-10-16T06:13:05;11.48;;;6.97;;
19191;SDS011;9728;48.194;16.346;2022-10-16T06:18:10;10.73;;;6.82;;
19191;SDS011;9728;48.194;16.346;2022-10-16T06:23:13;11.32;;;6.65;;
19191;SDS011;9728;48.194;16.346;2022-10-16T06:28:17;11.02;;;7.38;;
19191;SDS011;9728;48.194;16.346;2022-10-16T06:33:23;13.25;;;7.57;;
19191;SDS011;9728;48.194;16.346;2022-10-16T06:38:26;11.88;;;7.90;;
19191;SDS011;9728;48.194;16.346;2022-10-16T06:43:30;12.77;;;8.20;;
19191;SDS011;9728;48.194;16.346;2022-10-16T06:48:38;13.73;;;8.32;;
19191;SDS011;9728;48.194;16.346;2022-10-16T06:53:42;12.68;;;7.82;;
19191;SDS011;9728;48.194;16.346;2022-10-16T06:59:06;13.57;;;8.18;;
19191;SDS011;9728;48.194;16.346;2022-10-16T07:04:11;14.48;;;8.93;;
19191;SDS011;9728;48.194;16.346;2022-10-16T07:09:14;15.10;;;8.85;;
19191;SDS011;9728;48.194;16.346;2022-10-16T07:14:18;16.17;;;8.35;;
19191;SDS011;9728;48.194;16.346;2022-10-16T07:19:24;11.90;;;7.68;;
19191;SDS011;9728;48.194;16.346;2022-10-16T07:24:33;12.07;;;8.27;;
19191;SDS011;9728;48.194;16.346;2022-10-16T07:29:37;14.10;;;8.48;;
19191;SDS011;9728;48.194;16.346;2022-10-16T07:34:42;19.45;;;11.07;;
19191;SDS011;9728;48.194;16.346;2022-10-16T07:39:45;16.63;;;9.85;;
19191;SDS011;9728;48.194;16.346;2022-10-16T07:44:50;13.82;;;9.48;;
19191;SDS011;9728;48.194;16.346;2022-10-16T07:49:54;15.82;;;9.18;;
19191;SDS011;9728;48.194;16.346;2022-10-16T07:54:58;14.82;;;9.48;;
19191;SDS011;9728;48.194;16.346;2022-10-16T08:00:01;14.43;;;8.70;;
19191;SDS011;9728;48.194;16.346;2022-10-16T08:05:14;15.32;;;9.10;;
19191;SDS011;9728;48.194;16.346;2022-10-16T08:10:18;12.90;;;9.18;;
19191;SDS011;9728;48.194;16.346;2022-10-16T08:15:22;13.60;;;8.73;;
19191;SDS011;9728;48.194;16.346;2022-10-16T08:20:28;14.10;;;8.10;;
19191;SDS011;9728;48.194;16.346;2022-10-16T08:25:33;13.25;;;8.93;;
19191;SDS011;9728;48.194;16.346;2022-10-16T08:30:37;12.32;;;8.05;;
19191;SDS011;9728;48.194;16.346;2022-10-16T08:35:42;11.90;;;8.15;;
19191;SDS011;9728;48.194;16.346;2022-10-16T08:40:52;13.40;;;8.50;;
19191;SDS011;9728;48.194;16.346;2022-10-16T08:46:09;13.50;;;8.90;;
19191;SDS011;9728;48.194;16.346;2022-10-16T08:51:24;14.63;;;9.00;;
19191;SDS011;9728;48.194;16.346;2022-10-16T08:56:32;11.70;;;7.88;;
19191;SDS011;9728;48.194;16.346;2022-10-16T09:01:37;12.07;;;7.93;;
19191;SDS011;9728;48.194;16.346;2022-10-16T09:06:45;13.05;;;9.07;;
19191;SDS011;9728;48.194;16.346;2022-10-16T09:11:52;10.10;;;8.13;;
19191;SDS011;9728;48.194;16.346;2022-10-16T09:17:06;9.35;;;7.13;;
19191;SDS011;9728;48.194;16.346;2022-10-16T09:22:25;13.40;;;8.55;;
19191;SDS011;9728;48.194;16.346;2022-10-16T09:27:31;12.25;;;8.27;;
19191;SDS011;9728;48.194;16.346;2022-10-16T09:32:34;12.80;;;8.73;;
19191;SDS011;9728;48.194;16.346;2022-10-16T09:37:39;12.25;;;8.43;;
19191;SDS011;9728;48.194;16.346;2022-10-16T09:42:44;12.52;;;7.97;;
19191;SDS011;9728;48.194;16.346;2022-10-16T09:47:48;13.20;;;9.20;;
19191;SDS011;9728;48.194;16.346;2022-10-16T09:53:05;14.13;;;9.27;;
19191;SDS011;9728;48.194;16.346;2022-10-16T09:58:14;14.23;;;9.35;;
19191;SDS011;9728;48.194;16.346;2022-10-16T10:03:24;13.50;;;9.05;;
19191;SDS011;9728;48.194;16.346;2022-10-16T10:08:38;13.38;;;8.85;;
19191;SDS011;9728;48.194;16.346;2022-10-16T10:13:41;12.40;;;8.55;;
19191;SDS011;9728;48.194;16.346;2022-10-16T10:18:45;13.48;;;9.18;;
19191;SDS011;9728;48.194;16.346;2022-10-16T10:23:56;15.90;;;10.35;;
19191;SDS011;9728;48.194;16.346;2022-10-16T10:29:00;14.48;;;9.13;;
19191;SDS011;9728;48.194;16.346;2022-10-16T10:34:32;12.65;;;8.55;;
19191;SDS011;9728;48.194;16.346;2022-10-16T10:39:47;15.45;;;9.85;;
19191;SDS011;9728;48.194;16.346;2022-10-16T10:50:26;13.45;;;8.88;;
19191;SDS011;9728;48.194;16.346;2022-10-16T10:55:43;14.25;;;9.73;;
19191;SDS011;9728;48.194;16.346;2022-10-16T11:00:54;14.00;;;9.25;;
19191;SDS011;9728;48.194;16.346;2022-10-16T11:06:04;13.43;;;9.00;;
19191;SDS011;9728;48.194;16.346;2022-10-16T11:11:13;15.30;;;9.93;;
19191;SDS011;9728;48.194;16.346;2022-10-16T11:16:22;13.32;;;9.30;;
19191;SDS011;9728;48.194;16.346;2022-10-16T11:21:31;15.73;;;10.55;;
19191;SDS011;9728;48.194;16.346;2022-10-16T11:26:43;15.98;;;10.10;;
19191;SDS011;9728;48.194;16.346;2022-10-16T11:31:51;14.00;;;9.43;;
19191;SDS011;9728;48.194;16.346;2022-10-16T11:36:59;15.23;;;9.73;;
19191;SDS011;9728;48.194;16.346;2022-10-16T11:42:09;9.05;;;5.55;;
19191;SDS011;9728;48.194;16.346;2022-10-16T11:47:24;15.73;;;10.35;;
19191;SDS011;9728;48.194;16.346;2022-10-16T11:52:54;14.77;;;10.07;;
19191;SDS011;9728;48.194;16.346;2022-10-16T11:58:05;15.90;;;11.48;;
19191;SDS011;9728;48.194;16.346;2022-10-16T12:03:17;16.55;;;11.38;;
19191;SDS011;9728;48.194;16.346;2022-10-16T12:08:24;16.38;;;10.45;;
19191;SDS011;9728;48.194;16.346;2022-10-16T12:13:34;17.73;;;11.60;;
19191;SDS011;9728;48.194;16.346;2022-10-16T12:18:39;17.70;;;12.48;;
19191;SDS011;9728;48.194;16.346;2022-10-16T12:23:47;18.58;;;12.18;;
19191;SDS011;9728;48.194;16.346;2022-10-16T12:28:54;17.90;;;11.98;;
19191;SDS011;9728;48.194;16.346;2022-10-16T12:33:59;17.80;;;11.85;;
19191;SDS011;9728;48.194;16.346;2022-10-16T12:39:05;17.77;;;12.38;;
19191;SDS011;9728;48.194;16.346;2022-10-16T12:44:24;16.17;;;11.48;;
19191;SDS011;9728;48.194;16.346;2022-10-16T12:49:32;19.33;;;12.70;;
19191;SDS011;9728;48.194;16.346;2022-10-16T12:54:39;17.05;;;11.18;;
19191;SDS011;9728;48.194;16.346;2022-10-16T12:59:47;19.45;;;12.27;;
19191;SDS011;9728;48.194;16.346;2022-10-16T13:05:01;15.63;;;11.65;;
19191;SDS011;9728;48.194;16.346;2022-10-16T13:10:17;17.08;;;11.55;;
19191;SDS011;9728;48.194;16.346;2022-10-16T13:15:38;17.63;;;11.93;;
19191;SDS011;9728;48.194;16.346;2022-10-16T13:21:01;18.38;;;12.48;;
19191;SDS011;9728;48.194;16.346;2022-10-16T13:26:17;20.23;;;12.85;;
19191;SDS011;9728;48.194;16.346;2022-10-16T13:31:32;19.58;;;13.02;;
19191;SDS011;9728;48.194;16.346;2022-10-16T13:36:44;18.73;;;12.70;;
19191;SDS011;9728;48.194;16.346;2022-10-16T13:41:57;16.17;;;11.57;;
19191;SDS011;9728;48.194;16.346;2022-10-16T13:47:18;17.58;;;12.48;;
19191;SDS011;9728;48.194;16.346;2022-10-16T13:52:22;17.55;;;12.50;;
19191;SDS011;9728;48.194;16.346;2022-10-16T13:57:26;19.45;;;13.20;;
19191;SDS011;9728;48.194;16.346;2022-10-16T14:02:31;25.48;;;14.38;;
19191;SDS011;9728;48.194;16.346;2022-10-16T14:07:38;17.48;;;12.05;;
19191;SDS011;9728;48.194;16.346;2022-10-16T14:12:42;17.23;;;11.57;;
19191;SDS011;9728;48.194;16.346;2022-10-16T14:17:49;17.88;;;13.00;;
19191;SDS011;9728;48.194;16.346;2022-10-16T14:22:58;16.83;;;11.68;;
19191;SDS011;9728;48.194;16.346;2022-10-16T14:28:03;17.77;;;12.23;;
19191;SDS011;9728;48.194;16.346;2022-10-16T14:33:20;15.13;;;10.35;;
19191;SDS011;9728;48.194;16.346;2022-10-16T14:38:25;18.60;;;12.10;;
19191;SDS011;9728;48.194;16.346;2022-10-16T14:43:30;16.85;;;11.55;;
19191;SDS011;9728;48.194;16.346;2022-10-16T14:48:41;15.00;;;10.90;;
19191;SDS011;9728;48.194;16.346;2022-10-16T14:53:45;16.30;;;10.90;;
19191;SDS011;9728;48.194;16.346;2022-10-16T14:58:50;15.25;;;10.55;;
19191;SDS011;9728;48.194;16.346;2022-10-16T15:03:56;15.45;;;10.57;;
19191;SDS011;9728;48.194;16.346;2022-10-16T15:09:00;16.05;;;11.32;;
19191;SDS011;9728;48.194;16.346;2022-10-16T15:14:03;18.30;;;11.65;;
19191;SDS011;9728;48.194;16.346;2022-10-16T15:19:08;14.85;;;10.63;;
19191;SDS011;9728;48.194;16.346;2022-10-16T15:24:12;14.07;;;10.18;;
19191;SDS011;9728;48.194;16.346;2022-10-16T15:29:21;16.52;;;11.02;;
19191;SDS011;9728;48.194;16.346;2022-10-16T15:34:25;13.88;;;9.93;;
19191;SDS011;9728;48.194;16.346;2022-10-16T15:39:29;13.25;;;10.02;;
19191;SDS011;9728;48.194;16.346;2022-10-16T15:44:36;14.20;;;9.90;;
19191;SDS011;9728;48.194;16.346;2022-10-16T15:49:42;14.27;;;10.43;;
19191;SDS011;9728;48.194;16.346;2022-10-16T15:54:45;13.00;;;9.82;;
19191;SDS011;9728;48.194;16.346;2022-10-16T15:59:55;14.68;;;9.93;;
19191;SDS011;9728;48.194;16.346;2022-10-16T16:05:00;14.68;;;10.25;;
19191;SDS011;9728;48.194;16.346;2022-10-16T16:10:05;12.82;;;9.25;;
19191;SDS011;9728;48.194;16.346;2022-10-16T16:15:10;14.65;;;10.25;;
19191;SDS011;9728;48.194;16.346;2022-10-16T16:20:15;15.00;;;10.45;;
19191;SDS011;9728;48.194;16.346;2022-10-16T16:25:19;15.85;;;11.18;;
19191;SDS011;9728;48.194;16.346;2022-10-16T16:30:23;14.15;;;10.23;;
19191;SDS011;9728;48.194;16.346;2022-10-16T16:35:30;13.55;;;9.75;;
19191;SDS011;9728;48.194;16.346;2022-10-16T16:40:33;14.43;;;9.68;;
19191;SDS011;9728;48.194;16.346;2022-10-16T16:45:37;16.73;;;10.23;;
19191;SDS011;9728;48.194;16.346;2022-10-16T16:50:43;14.27;;;9.90;;
19191;SDS011;9728;48.194;16.346;2022-10-16T16:55:47;13.38;;;9.65;;
19191;SDS011;9728;48.194;16.346;2022-10-16T17:00:52;13.18;;;8.88;;
19191;SDS011;9728;48.194;16.346;2022-10-16T17:06:05;29.02;;;15.93;;
19191;SDS011;9728;48.194;16.346;2022-10-16T17:11:12;27.45;;;14.13;;
19191;SDS011;9728;48.194;16.346;2022-10-16T17:16:20;28.48;;;13.88;;
19191;SDS011;9728;48.194;16.346;2022-10-16T17:21:29;21.15;;;13.80;;
19191;SDS011;9728;48.194;16.346;2022-10-16T17:26:34;21.63;;;12.85;;
19191;SDS011;9728;48.194;16.346;2022-10-16T17:31:43;15.02;;;9.82;;
19191;SDS011;9728;48.194;16.346;2022-10-16T17:36:50;15.98;;;10.30;;
19191;SDS011;9728;48.194;16.346;2022-10-16T17:41:57;15.10;;;10.02;;
19191;SDS011;9728;48.194;16.346;2022-10-16T17:47:03;13.27;;;9.10;;
19191;SDS011;9728;48.194;16.346;2022-10-16T17:52:10;14.38;;;9.38;;
19191;SDS011;9728;48.194;16.346;2022-10-16T17:57:16;14.18;;;9.35;;
19191;SDS011;9728;48.194;16.346;2022-10-16T18:02:23;14.20;;;10.00;;
19191;SDS011;9728;48.194;16.346;2022-10-16T18:07:31;13.25;;;9.43;;
19191;SDS011;9728;48.194;16.346;2022-10-16T18:12:37;14.20;;;9.13;;
19191;SDS011;9728;48.194;16.346;2022-10-16T18:17:43;15.23;;;9.55;;
19191;SDS011;9728;48.194;16.346;2022-10-16T18:22:51;13.95;;;8.98;;
19191;SDS011;9728;48.194;16.346;2022-10-16T18:27:57;14.13;;;8.88;;
19191;SDS011;9728;48.194;16.346;2022-10-16T18:33:01;12.32;;;8.55;;
19191;SDS011;9728;48.194;16.346;2022-10-16T18:38:08;13.80;;;9.73;;
19191;SDS011;9728;48.194;16.346;2022-10-16T18:43:14;15.75;;;9.98;;
19191;SDS011;9728;48.194;16.346;2022-10-16T18:48:20;14.73;;;9.98;;
19191;SDS011;9728;48.194;16.346;2022-10-16T18:53:27;14.35;;;9.75;;
19191;SDS011;9728;48.194;16.346;2022-10-16T18:58:38;15.15;;;10.20;;
19191;SDS011;9728;48.194;16.346;2022-10-16T19:03:45;14.75;;;10.18;;
19191;SDS011;9728;48.194;16.346;2022-10-16T19:08:53;15.55;;;10.35;;
19191;SDS011;9728;48.194;16.346;2022-10-16T19:13:59;15.77;;;10.68;;
19191;SDS011;9728;48.194;16.346;2022-10-16T19:19:05;15.70;;;10.23;;
19191;SDS011;9728;48.194;16.346;2022-10-16T19:24:12;14.15;;;9.27;;
19191;SDS011;9728;48.194;16.346;2022-10-16T19:29:19;16.15;;;10.48;;
19191;SDS011;9728;48.194;16.346;2022-10-16T19:34:25;17.38;;;10.68;;
19191;SDS011;9728;48.194;16.346;2022-10-16T19:39:30;17.08;;;10.95;;
19191;SDS011;9728;48.194;16.346;2022-10-16T19:44:34;14.98;;;10.20;;
19191;SDS011;9728;48.194;16.346;2022-10-16T19:49:37;17.60;;;11.43;;
19191;SDS011;9728;48.194;16.346;2022-10-16T19:54:43;16.10;;;10.27;;
19191;SDS011;9728;48.194;16.346;2022-10-16T19:59:50;18.20;;;10.70;;
19191;SDS011;9728;48.194;16.346;2022-10-16T20:04:54;21.88;;;10.73;;
19191;SDS011;9728;48.194;16.346;2022-10-16T20:09:59;17.65;;;10.90;;
19191;SDS011;9728;48.194;16.346;2022-10-16T20:15:03;16.42;;;10.15;;
19191;SDS011;9728;48.194;16.346;2022-10-16T20:20:07;18.85;;;10.23;;
19191;SDS011;9728;48.194;16.346;2022-10-16T20:25:13;20.25;;;11.20;;
19191;SDS011;9728;48.194;16.346;2022-10-16T20:30:19;17.95;;;10.98;;
19191;SDS011;9728;48.194;16.346;2022-10-16T20:35:23;18.08;;;11.38;;
19191;SDS011;9728;48.194;16.346;2022-10-16T20:40:29;22.90;;;12.60;;
19191;SDS011;9728;48.194;16.346;2022-10-16T20:45:35;18.85;;;11.07;;
19191;SDS011;9728;48.194;16.346;2022-10-16T20:50:39;21.33;;;11.60;;
19191;SDS011;9728;48.194;16.346;2022-10-16T20:55:45;17.30;;;10.80;;
19191;SDS011;9728;48.194;16.346;2022-10-16T21:00:48;21.45;;;12.20;;
19191;SDS011;9728;48.194;16.346;2022-10-16T21:05:51;17.52;;;11.48;;
19191;SDS011;9728;48.194;16.346;2022-10-16T21:11:01;18.63;;;11.48;;
19191;SDS011;9728;48.194;16.346;2022-10-16T21:16:12;19.58;;;11.10;;
19191;SDS011;9728;48.194;16.346;2022-10-16T21:21:20;19.00;;;12.18;;
19191;SDS011;9728;48.194;16.346;2022-10-16T21:26:27;18.00;;;10.77;;
19191;SDS011;9728;48.194;16.346;2022-10-16T21:31:31;19.60;;;11.55;;
19191;SDS011;9728;48.194;16.346;2022-10-16T21:36:36;20.08;;;11.18;;
19191;SDS011;9728;48.194;16.346;2022-10-16T21:41:43;20.05;;;11.57;;
19191;SDS011;9728;48.194;16.346;2022-10-16T21:46:49;23.13;;;12.20;;
19191;SDS011;9728;48.194;16.346;2022-10-16T21:51:52;16.52;;;11.02;;
19191;SDS011;9728;48.194;16.346;2022-10-16T21:56:57;17.17;;;11.43;;
19191;SDS011;9728;48.194;16.346;2022-10-16T22:02:00;16.25;;;9.80;;
19191;SDS011;9728;48.194;16.346;2022-10-16T22:07:04;18.08;;;10.90;;
19191;SDS011;9728;48.194;16.346;2022-10-16T22:12:08;16.55;;;10.50;;
19191;SDS011;9728;48.194;16.346;2022-10-16T22:17:12;18.65;;;10.85;;
19191;SDS011;9728;48.194;16.346;2022-10-16T22:22:15;16.52;;;9.98;;
19191;SDS011;9728;48.194;16.346;2022-10-16T22:27:20;16.65;;;10.95;;
19191;SDS011;9728;48.194;16.346;2022-10-16T22:32:23;15.80;;;10.20;;
19191;SDS011;9728;48.194;16.346;2022-10-16T22:37:27;16.27;;;9.93;;
19191;SDS011;9728;48.194;16.346;2022-10-16T22:42:33;17.60;;;10.85;;
19191;SDS011;9728;48.194;16.346;2022-10-16T22:47:37;15.80;;;10.32;;
19191;SDS011;9728;48.194;16.346;2022-10-16T22:52:40;16.48;;;10.65;;
19191;SDS011;9728;48.194;16.346;2022-10-16T22:57:45;18.13;;;11.20;;
19191;SDS011;9728;48.194;16.346;2022-10-16T23:02:48;17.55;;;10.85;;
19191;SDS011;9728;48.194;16.346;2022-10-16T23:07:52;19.88;;;11.82;;
19191;SDS011;9728;48.194;16.346;2022-10-16T23:12:59;15.98;;;10.35;;
19191;SDS011;9728;48.194;16.346;2022-10-16T23:18:03;18.17;;;11.40;;
19191;SDS011;9728;48.194;16.346;2022-10-16T23:23:06;17.58;;;10.63;;
19191;SDS011;9728;48.194;16.346;2022-10-16T23:28:11;15.68;;;10.40;;
19191;SDS011;9728;48.194;16.346;2022-10-16T23:33:14;17.13;;;10.77;;
19191;SDS011;9728;48.194;16.346;2022-10-16T23:38:19;19.40;;;11.73;;
19191;SDS011;9728;48.194;16.346;2022-10-16T23:43:23;17.55;;;10.55;;
19191;SDS011;9728;48.194;16.346;2022-10-16T23:48:29;17.50;;;10.63;;
19191;SDS011;9728;48.194;16.346;2022-10-16T23:53:32;15.38;;;10.55;;
19191;SDS011;9728;48.194;16.346;2022-10-16T23:58:37;16.48;;;10.30;;
